Tel Aviv, Israel

9:33 PM IST on February 13, 2016 (GMT +0200)
Neve oz | | Change Station
CLOSE
Current Station
Personal Weather Station
Location: Petah Tikva, CENTER DISTRICT
Elevation: 190 ft
Nearby Weather Stations

Elev 190 ft 32.08 °N, 34.87 °E | Updated 16 seconds ago

Clear
Clear
57.4 °F
Feels Like 57.4 °F
N
0.0
Wind Variable Wind from South
Gusts 0.0 mph

Today
High -- | Low -- °F
--% Chance of Precip.
Yesterday
High -- | Low -- °F
Precip. -- in
Pressure 30.09 in
Visibility 5.6 miles
Clouds
Dew Point 55 °F
Humidity 92%
Rainfall 0.00 in
Snow Depth Not available.
6:25 AM 5:24 PM
Waxing Crescent, 33% visible
METAR LLBG 131920Z VRB01KT 9000 NSC 13/11 Q1019 TEMPO 6000
Pressure 30.09 in
Visibility 5.6 miles
Clouds
Dew Point 55 °F
Humidity 92%
Rainfall 0.00 in
Snow Depth Not available.
6:25 AM 5:24 PM
Waxing Crescent, 33% visible
METAR LLBG 131920Z VRB01KT 9000 NSC 13/11 Q1019 TEMPO 6000

10-Day Weather Forecast

No radar image for this location.
×

Almanac

Astronomy

Feb. 13, 2016 Rise Set
Actual Time
Civil Twilight
Nautical Twilight
Astronomical Twilight
Moon
Length of Visible Light
Length of Day
Tomorrow will be .
, % of the Moon is Illuminated

Today's Extremes

Country Highs Country Lows

Community

WunderPhotos

Upload Photos

1,892,642 photos uploaded!

WunderBlog® & News

Nearby

Air Quality

  Air Quality AQ Index Pollutant
Not available.

Snow Depth

Station Depth Elevation

Earthquake Activity

City Distance Mag. Time & Date
Minimum magnitude displayed is 2.5.

Coastal Water Temperatures

Place Temperature

Stations

Nearby Weather Stations

Station Location Temp. Windchill Dew Point Humidity Wind Precip. Elev Updated Type